sensor_id;sensor_type;location;lat;lon;timestamp;P1;P2;P0
69222;PMS7003;56514;51.816;-0.026;2022-11-04T00:00:38;9.50;9.50;6.00
69222;PMS7003;56514;51.816;-0.026;2022-11-04T00:03:42;9.00;9.00;7.00
69222;PMS7003;56514;51.816;-0.026;2022-11-04T00:06:47;13.00;11.50;6.75
69222;PMS7003;56514;51.816;-0.026;2022-11-04T00:09:56;9.25;9.25;5.50
69222;PMS7003;56514;51.816;-0.026;2022-11-04T00:13:01;9.25;9.25;8.00
69222;PMS7003;56514;51.816;-0.026;2022-11-04T00:16:09;12.25;11.50;9.25
69222;PMS7003;56514;51.816;-0.026;2022-11-04T00:19:38;10.00;10.00;7.00
69222;PMS7003;56514;51.816;-0.026;2022-11-04T00:23:06;7.25;7.25;6.00
69222;PMS7003;56514;51.816;-0.026;2022-11-04T00:26:34;13.00;10.50;7.00
69222;PMS7003;56514;51.816;-0.026;2022-11-04T00:30:03;12.25;9.75;6.25
69222;PMS7003;56514;51.816;-0.026;2022-11-04T00:32:56;9.00;9.00;6.00
69222;PMS7003;56514;51.816;-0.026;2022-11-04T00:36:00;10.00;10.00;8.00
69222;PMS7003;56514;51.816;-0.026;2022-11-04T00:38:45;12.50;12.50;5.00
69222;PMS7003;56514;51.816;-0.026;2022-11-04T00:41:30;10.00;10.00;7.00
69222;PMS7003;56514;51.816;-0.026;2022-11-04T00:44:18;15.00;15.00;8.00
69222;PMS7003;56514;51.816;-0.026;2022-11-04T00:47:04;12.50;10.50;7.00
69222;PMS7003;56514;51.816;-0.026;2022-11-04T00:49:49;10.00;10.00;7.00
69222;PMS7003;56514;51.816;-0.026;2022-11-04T00:52:34;8.50;8.50;6.00
69222;PMS7003;56514;51.816;-0.026;2022-11-04T00:55:19;8.50;8.50;5.00
69222;PMS7003;56514;51.816;-0.026;2022-11-04T00:58:07;11.00;11.00;8.00
69222;PMS7003;56514;51.816;-0.026;2022-11-04T01:00:52;13.00;13.00;7.50
69222;PMS7003;56514;51.816;-0.026;2022-11-04T01:03:37;17.00;14.50;6.75
69222;PMS7003;56514;51.816;-0.026;2022-11-04T01:06:23;14.50;14.50;9.00
69222;PMS7003;56514;51.816;-0.026;2022-11-04T01:09:10;14.00;14.00;7.50
69222;PMS7003;56514;51.816;-0.026;2022-11-04T01:11:56;11.75;11.75;7.50
69222;PMS7003;56514;51.816;-0.026;2022-11-04T01:14:40;10.00;10.00;6.00
69222;PMS7003;56514;51.816;-0.026;2022-11-04T01:17:26;5.50;5.50;5.00
69222;PMS7003;56514;51.816;-0.026;2022-11-04T01:20:11;6.00;6.00;3.25
69222;PMS7003;56514;51.816;-0.026;2022-11-04T01:22:57;6.00;6.00;5.00
69222;PMS7003;56514;51.816;-0.026;2022-11-04T01:25:42;4.50;4.50;4.00
69222;PMS7003;56514;51.816;-0.026;2022-11-04T01:28:27;1.00;1.00;0.50
69222;PMS7003;56514;51.816;-0.026;2022-11-04T01:31:13;7.00;7.00;6.00
69222;PMS7003;56514;51.816;-0.026;2022-11-04T01:34:01;10.25;10.25;6.00
69222;PMS7003;56514;51.816;-0.026;2022-11-04T01:36:46;9.25;9.25;6.00
69222;PMS7003;56514;51.816;-0.026;2022-11-04T01:39:30;8.00;8.00;5.50
69222;PMS7003;56514;51.816;-0.026;2022-11-04T01:42:21;7.25;7.25;4.00
69222;PMS7003;56514;51.816;-0.026;2022-11-04T01:45:11;3.75;3.75;3.00
69222;PMS7003;56514;51.816;-0.026;2022-11-04T01:47:59;5.00;5.00;3.00
69222;PMS7003;56514;51.816;-0.026;2022-11-04T01:50:48;6.00;6.00;3.25
69222;PMS7003;56514;51.816;-0.026;2022-11-04T01:53:36;3.00;3.00;2.00
69222;PMS7003;56514;51.816;-0.026;2022-11-04T01:56:25;3.00;3.00;2.50
69222;PMS7003;56514;51.816;-0.026;2022-11-04T01:59:13;1.50;1.50;1.00
69222;PMS7003;56514;51.816;-0.026;2022-11-04T02:02:04;3.75;3.75;2.50
69222;PMS7003;56514;51.816;-0.026;2022-11-04T02:04:50;3.25;3.25;2.50
69222;PMS7003;56514;51.816;-0.026;2022-11-04T02:07:35;3.25;3.25;1.50
69222;PMS7003;56514;51.816;-0.026;2022-11-04T02:10:21;4.00;4.00;1.50
69222;PMS7003;56514;51.816;-0.026;2022-11-04T02:13:09;2.00;2.00;0.75
69222;PMS7003;56514;51.816;-0.026;2022-11-04T02:41:21;1.00;1.00;0.00
69222;PMS7003;56514;51.816;-0.026;2022-11-04T02:46:59;2.50;2.50;2.50
69222;PMS7003;56514;51.816;-0.026;2022-11-04T02:50:07;2.50;2.50;1.50
69222;PMS7003;56514;51.816;-0.026;2022-11-04T02:53:02;1.00;1.00;0.25
69222;PMS7003;56514;51.816;-0.026;2022-11-04T02:55:56;0.75;0.75;0.25
69222;PMS7003;56514;51.816;-0.026;2022-11-04T02:58:44;3.00;3.00;1.50
69222;PMS7003;56514;51.816;-0.026;2022-11-04T03:01:36;3.00;3.00;1.50
69222;PMS7003;56514;51.816;-0.026;2022-11-04T03:04:30;3.00;3.00;2.50
69222;PMS7003;56514;51.816;-0.026;2022-11-04T03:07:25;6.00;6.00;3.00
69222;PMS7003;56514;51.816;-0.026;2022-11-04T03:10:51;5.00;5.00;2.50
69222;PMS7003;56514;51.816;-0.026;2022-11-04T03:13:33;8.50;8.50;6.00
69222;PMS7003;56514;51.816;-0.026;2022-11-04T03:16:26;9.00;9.00;6.00
69222;PMS7003;56514;51.816;-0.026;2022-11-04T03:19:30;6.00;6.00;5.00
69222;PMS7003;56514;51.816;-0.026;2022-11-04T03:22:25;6.75;6.75;5.00
69222;PMS7003;56514;51.816;-0.026;2022-11-04T03:25:13;7.25;7.25;3.25
69222;PMS7003;56514;51.816;-0.026;2022-11-04T03:28:18;4.00;4.00;3.50
69222;PMS7003;56514;51.816;-0.026;2022-11-04T03:31:11;4.25;4.25;3.50
69222;PMS7003;56514;51.816;-0.026;2022-11-04T03:34:05;6.00;6.00;4.00
69222;PMS7003;56514;51.816;-0.026;2022-11-04T03:36:50;6.50;6.50;4.00
69222;PMS7003;56514;51.816;-0.026;2022-11-04T03:39:35;8.00;7.00;5.50
69222;PMS7003;56514;51.816;-0.026;2022-11-04T03:42:20;6.50;6.50;4.00
69222;PMS7003;56514;51.816;-0.026;2022-11-04T03:45:07;7.00;7.00;6.00
69222;PMS7003;56514;51.816;-0.026;2022-11-04T03:47:53;9.25;9.25;4.50
69222;PMS7003;56514;51.816;-0.026;2022-11-04T03:50:44;6.75;6.75;6.00
69222;PMS7003;56514;51.816;-0.026;2022-11-04T03:53:34;5.50;5.50;4.50
69222;PMS7003;56514;51.816;-0.026;2022-11-04T04:02:33;8.50;8.50;6.00
69222;PMS7003;56514;51.816;-0.026;2022-11-04T04:05:29;7.75;7.75;4.00
69222;PMS7003;56514;51.816;-0.026;2022-11-04T04:20:18;7.00;7.00;5.00
69222;PMS7003;56514;51.816;-0.026;2022-11-04T04:23:10;3.00;3.00;1.00
69222;PMS7003;56514;51.816;-0.026;2022-11-04T04:26:19;4.00;4.00;3.50
69222;PMS7003;56514;51.816;-0.026;2022-11-04T04:29:28;6.75;6.75;3.00
69222;PMS7003;56514;51.816;-0.026;2022-11-04T04:32:13;6.25;6.25;3.25
69222;PMS7003;56514;51.816;-0.026;2022-11-04T04:35:00;5.75;5.75;3.50
69222;PMS7003;56514;51.816;-0.026;2022-11-04T04:38:04;7.00;7.00;4.50
69222;PMS7003;56514;51.816;-0.026;2022-11-04T04:41:12;5.75;3.75;2.00
69222;PMS7003;56514;51.816;-0.026;2022-11-04T04:44:20;8.00;7.00;4.00
69222;PMS7003;56514;51.816;-0.026;2022-11-04T04:47:48;6.00;6.00;3.00
69222;PMS7003;56514;51.816;-0.026;2022-11-04T04:50:34;4.00;4.00;3.50
69222;PMS7003;56514;51.816;-0.026;2022-11-04T04:53:23;7.00;7.00;3.00
69222;PMS7003;56514;51.816;-0.026;2022-11-04T04:56:08;6.00;6.00;4.00
69222;PMS7003;56514;51.816;-0.026;2022-11-04T04:58:52;9.25;8.50;5.00
69222;PMS7003;56514;51.816;-0.026;2022-11-04T05:01:37;9.00;7.00;5.00
69222;PMS7003;56514;51.816;-0.026;2022-11-04T05:04:22;7.50;7.50;5.00
69222;PMS7003;56514;51.816;-0.026;2022-11-04T05:07:07;5.00;5.00;3.00
69222;PMS7003;56514;51.816;-0.026;2022-11-04T05:09:53;6.00;6.00;5.00
69222;PMS7003;56514;51.816;-0.026;2022-11-04T05:12:38;9.75;9.75;6.25
69222;PMS7003;56514;51.816;-0.026;2022-11-04T05:15:43;5.25;4.00;2.00
69222;PMS7003;56514;51.816;-0.026;2022-11-04T05:18:28;6.50;6.50;4.00
69222;PMS7003;56514;51.816;-0.026;2022-11-04T05:21:13;11.00;11.00;4.00
69222;PMS7003;56514;51.816;-0.026;2022-11-04T05:23:59;4.00;4.00;3.75
69222;PMS7003;56514;51.816;-0.026;2022-11-04T05:26:45;4.00;4.00;3.00
69222;PMS7003;56514;51.816;-0.026;2022-11-04T05:29:29;5.00;5.00;3.00
69222;PMS7003;56514;51.816;-0.026;2022-11-04T05:32:15;4.00;4.00;3.00
69222;PMS7003;56514;51.816;-0.026;2022-11-04T05:35:00;4.00;4.00;3.00
69222;PMS7003;56514;51.816;-0.026;2022-11-04T05:37:45;9.00;8.50;4.00
69222;PMS7003;56514;51.816;-0.026;2022-11-04T05:40:30;7.00;7.00;4.50
69222;PMS7003;56514;51.816;-0.026;2022-11-04T05:43:18;4.50;4.50;3.00
69222;PMS7003;56514;51.816;-0.026;2022-11-04T05:46:04;6.75;6.75;4.00
69222;PMS7003;56514;51.816;-0.026;2022-11-04T05:48:49;4.50;4.50;4.00
69222;PMS7003;56514;51.816;-0.026;2022-11-04T05:51:34;5.00;5.00;3.00
69222;PMS7003;56514;51.816;-0.026;2022-11-04T05:54:20;4.00;4.00;3.00
69222;PMS7003;56514;51.816;-0.026;2022-11-04T05:57:04;9.25;7.50;5.00
69222;PMS7003;56514;51.816;-0.026;2022-11-04T05:59:49;6.00;6.00;4.00
69222;PMS7003;56514;51.816;-0.026;2022-11-04T06:02:34;7.50;7.50;4.50
69222;PMS7003;56514;51.816;-0.026;2022-11-04T06:05:19;11.25;11.25;7.00
69222;PMS7003;56514;51.816;-0.026;2022-11-04T06:08:03;8.00;8.00;6.00
69222;PMS7003;56514;51.816;-0.026;2022-11-04T06:10:49;11.50;9.75;6.00
69222;PMS7003;56514;51.816;-0.026;2022-11-04T06:13:33;7.75;7.75;6.25
69222;PMS7003;56514;51.816;-0.026;2022-11-04T06:16:18;11.75;11.75;8.00
69222;PMS7003;56514;51.816;-0.026;2022-11-04T06:19:03;12.25;12.25;6.00
69222;PMS7003;56514;51.816;-0.026;2022-11-04T06:21:48;9.00;9.00;7.00
69222;PMS7003;56514;51.816;-0.026;2022-11-04T06:24:33;9.50;9.50;6.25
69222;PMS7003;56514;51.816;-0.026;2022-11-04T06:27:18;12.50;12.00;8.75
69222;PMS7003;56514;51.816;-0.026;2022-11-04T06:30:04;10.00;10.00;7.00
69222;PMS7003;56514;51.816;-0.026;2022-11-04T06:32:49;12.00;12.00;7.00
69222;PMS7003;56514;51.816;-0.026;2022-11-04T06:35:34;8.75;8.75;7.00
69222;PMS7003;56514;51.816;-0.026;2022-11-04T06:38:19;9.75;9.75;7.25
69222;PMS7003;56514;51.816;-0.026;2022-11-04T06:41:08;9.50;9.50;7.50
69222;PMS7003;56514;51.816;-0.026;2022-11-04T06:43:56;10.25;9.00;6.75
69222;PMS7003;56514;51.816;-0.026;2022-11-04T06:46:41;7.75;7.75;6.25
69222;PMS7003;56514;51.816;-0.026;2022-11-04T06:49:27;10.00;10.00;7.00
69222;PMS7003;56514;51.816;-0.026;2022-11-04T06:52:11;7.00;7.00;4.00
69222;PMS7003;56514;51.816;-0.026;2022-11-04T06:54:56;11.75;11.75;5.50
69222;PMS7003;56514;51.816;-0.026;2022-11-04T06:57:41;9.00;9.00;6.50
69222;PMS7003;56514;51.816;-0.026;2022-11-04T07:00:26;7.50;7.50;5.75
69222;PMS7003;56514;51.816;-0.026;2022-11-04T07:03:11;8.75;8.75;6.50
69222;PMS7003;56514;51.816;-0.026;2022-11-04T07:05:56;7.50;7.50;4.50
69222;PMS7003;56514;51.816;-0.026;2022-11-04T07:08:41;6.50;6.50;5.00
69222;PMS7003;56514;51.816;-0.026;2022-11-04T07:11:27;6.50;6.50;5.00
69222;PMS7003;56514;51.816;-0.026;2022-11-04T07:14:19;9.75;9.75;7.00
69222;PMS7003;56514;51.816;-0.026;2022-11-04T07:17:04;9.25;9.25;5.50
69222;PMS7003;56514;51.816;-0.026;2022-11-04T07:19:49;9.25;9.25;6.50
69222;PMS7003;56514;51.816;-0.026;2022-11-04T07:22:34;9.25;9.25;6.00
69222;PMS7003;56514;51.816;-0.026;2022-11-04T07:25:19;9.50;9.50;7.00
69222;PMS7003;56514;51.816;-0.026;2022-11-04T07:28:04;9.00;9.00;6.75
69222;PMS7003;56514;51.816;-0.026;2022-11-04T07:30:49;5.50;5.00;4.25
69222;PMS7003;56514;51.816;-0.026;2022-11-04T07:33:34;6.75;5.00;4.50
69222;PMS7003;56514;51.816;-0.026;2022-11-04T07:36:18;5.50;5.50;4.00
69222;PMS7003;56514;51.816;-0.026;2022-11-04T07:39:04;6.75;6.75;4.00
69222;PMS7003;56514;51.816;-0.026;2022-11-04T07:41:50;9.00;9.00;6.50
69222;PMS7003;56514;51.816;-0.026;2022-11-04T07:44:35;6.75;6.75;5.00
69222;PMS7003;56514;51.816;-0.026;2022-11-04T07:47:19;8.50;8.50;6.75
69222;PMS7003;56514;51.816;-0.026;2022-11-04T07:50:05;5.50;5.50;4.00
69222;PMS7003;56514;51.816;-0.026;2022-11-04T07:52:50;9.75;9.75;7.00
69222;PMS7003;56514;51.816;-0.026;2022-11-04T07:55:35;3.75;3.75;3.25
69222;PMS7003;56514;51.816;-0.026;2022-11-04T07:58:21;6.00;6.00;5.00
69222;PMS7003;56514;51.816;-0.026;2022-11-04T08:01:09;5.50;5.50;4.00
69222;PMS7003;56514;51.816;-0.026;2022-11-04T08:04:00;7.00;7.00;5.50
69222;PMS7003;56514;51.816;-0.026;2022-11-04T08:06:44;8.50;8.00;5.50
69222;PMS7003;56514;51.816;-0.026;2022-11-04T08:09:30;6.75;6.75;4.00
69222;PMS7003;56514;51.816;-0.026;2022-11-04T08:12:16;6.25;6.25;6.25
69222;PMS7003;56514;51.816;-0.026;2022-11-04T08:15:04;7.00;7.00;6.00
69222;PMS7003;56514;51.816;-0.026;2022-11-04T08:17:50;7.50;6.25;4.00
69222;PMS7003;56514;51.816;-0.026;2022-11-04T08:20:34;6.25;6.25;4.00
69222;PMS7003;56514;51.816;-0.026;2022-11-04T08:23:19;5.25;5.25;4.00
69222;PMS7003;56514;51.816;-0.026;2022-11-04T08:26:08;5.75;5.75;4.50
69222;PMS7003;56514;51.816;-0.026;2022-11-04T08:28:54;6.00;6.00;4.50
69222;PMS7003;56514;51.816;-0.026;2022-11-04T08:31:40;4.25;4.25;3.00
69222;PMS7003;56514;51.816;-0.026;2022-11-04T08:34:26;5.50;5.50;3.25
69222;PMS7003;56514;51.816;-0.026;2022-11-04T08:37:14;4.00;4.00;3.75
69222;PMS7003;56514;51.816;-0.026;2022-11-04T08:40:00;4.50;4.50;3.00
69222;PMS7003;56514;51.816;-0.026;2022-11-04T08:42:45;4.00;4.00;3.25
69222;PMS7003;56514;51.816;-0.026;2022-11-04T08:45:30;6.75;6.75;5.50
69222;PMS7003;56514;51.816;-0.026;2022-11-04T08:48:15;7.50;7.50;6.25
69222;PMS7003;56514;51.816;-0.026;2022-11-04T08:51:01;7.25;5.75;4.50
69222;PMS7003;56514;51.816;-0.026;2022-11-04T08:53:47;7.00;7.00;4.50
69222;PMS7003;56514;51.816;-0.026;2022-11-04T08:56:33;6.50;6.50;6.00
69222;PMS7003;56514;51.816;-0.026;2022-11-04T08:59:21;6.50;6.50;4.00
69222;PMS7003;56514;51.816;-0.026;2022-11-04T09:02:08;4.00;4.00;3.00
69222;PMS7003;56514;51.816;-0.026;2022-11-04T09:04:58;8.25;8.25;6.25
69222;PMS7003;56514;51.816;-0.026;2022-11-04T09:07:43;8.00;7.00;6.00
69222;PMS7003;56514;51.816;-0.026;2022-11-04T09:10:27;7.50;7.50;6.00
69222;PMS7003;56514;51.816;-0.026;2022-11-04T09:13:12;6.50;6.50;6.00
69222;PMS7003;56514;51.816;-0.026;2022-11-04T09:15:59;11.25;9.25;7.00
69222;PMS7003;56514;51.816;-0.026;2022-11-04T09:18:43;8.50;8.50;7.00
69222;PMS7003;56514;51.816;-0.026;2022-11-04T09:21:28;7.00;7.00;4.50
69222;PMS7003;56514;51.816;-0.026;2022-11-04T09:24:14;9.50;9.50;6.00
69222;PMS7003;56514;51.816;-0.026;2022-11-04T09:26:58;10.25;10.25;6.50
69222;PMS7003;56514;51.816;-0.026;2022-11-04T09:29:43;7.50;7.00;5.00
69222;PMS7003;56514;51.816;-0.026;2022-11-04T09:32:28;13.25;13.25;9.50
69222;PMS7003;56514;51.816;-0.026;2022-11-04T09:35:13;7.75;7.75;5.50
69222;PMS7003;56514;51.816;-0.026;2022-11-04T09:37:59;7.00;7.00;6.00
69222;PMS7003;56514;51.816;-0.026;2022-11-04T09:40:48;8.00;8.00;6.25
69222;PMS7003;56514;51.816;-0.026;2022-11-04T09:46:37;7.25;7.25;6.25
69222;PMS7003;56514;51.816;-0.026;2022-11-04T09:49:23;10.50;10.50;7.00
69222;PMS7003;56514;51.816;-0.026;2022-11-04T09:52:16;10.00;10.00;9.25
69222;PMS7003;56514;51.816;-0.026;2022-11-04T09:57:53;13.00;13.00;9.25
69222;PMS7003;56514;51.816;-0.026;2022-11-04T10:00:42;11.00;11.00;8.50
69222;PMS7003;56514;51.816;-0.026;2022-11-04T10:06:43;11.50;11.50;9.00
69222;PMS7003;56514;51.816;-0.026;2022-11-04T10:27:27;11.25;11.25;7.25
69222;PMS7003;56514;51.816;-0.026;2022-11-04T10:30:18;8.50;8.50;7.00
69222;PMS7003;56514;51.816;-0.026;2022-11-04T10:36:08;8.00;8.00;5.00
69222;PMS7003;56514;51.816;-0.026;2022-11-04T10:38:54;6.50;6.50;4.75
69222;PMS7003;56514;51.816;-0.026;2022-11-04T10:41:40;7.25;7.25;6.50
69222;PMS7003;56514;51.816;-0.026;2022-11-04T10:44:26;5.75;5.75;4.50
69222;PMS7003;56514;51.816;-0.026;2022-11-04T10:47:29;10.25;10.25;8.00
69222;PMS7003;56514;51.816;-0.026;2022-11-04T10:50:38;9.75;9.75;5.00
69222;PMS7003;56514;51.816;-0.026;2022-11-04T10:53:32;5.50;5.50;4.25
69222;PMS7003;56514;51.816;-0.026;2022-11-04T10:56:31;5.00;5.00;4.00
69222;PMS7003;56514;51.816;-0.026;2022-11-04T10:59:21;7.00;7.00;7.00
69222;PMS7003;56514;51.816;-0.026;2022-11-04T11:02:08;8.50;8.50;5.00
69222;PMS7003;56514;51.816;-0.026;2022-11-04T11:04:53;12.00;10.25;8.00
69222;PMS7003;56514;51.816;-0.026;2022-11-04T11:07:58;6.25;6.25;5.50
69222;PMS7003;56514;51.816;-0.026;2022-11-04T11:10:48;7.50;7.50;7.25
69222;PMS7003;56514;51.816;-0.026;2022-11-04T11:13:37;9.00;9.00;6.50
69222;PMS7003;56514;51.816;-0.026;2022-11-04T11:16:25;7.00;7.00;5.00
69222;PMS7003;56514;51.816;-0.026;2022-11-04T11:22:01;6.50;6.50;5.00
69222;PMS7003;56514;51.816;-0.026;2022-11-04T11:24:45;5.50;5.50;4.25
69222;PMS7003;56514;51.816;-0.026;2022-11-04T11:27:30;5.50;5.50;4.75
69222;PMS7003;56514;51.816;-0.026;2022-11-04T11:30:20;2.00;2.00;2.00
69222;PMS7003;56514;51.816;-0.026;2022-11-04T11:41:57;2.50;2.50;2.50
69222;PMS7003;56514;51.816;-0.026;2022-11-04T11:44:49;2.50;2.00;1.00
69222;PMS7003;56514;51.816;-0.026;2022-11-04T11:47:36;4.25;4.25;4.00
69222;PMS7003;56514;51.816;-0.026;2022-11-04T11:50:26;2.00;2.00;1.75
69222;PMS7003;56514;51.816;-0.026;2022-11-04T11:53:20;2.00;2.00;1.00
69222;PMS7003;56514;51.816;-0.026;2022-11-04T11:56:21;1.00;1.00;1.00
69222;PMS7003;56514;51.816;-0.026;2022-11-04T11:59:16;3.50;3.50;2.00
69222;PMS7003;56514;51.816;-0.026;2022-11-04T12:02:24;2.00;2.00;1.50
69222;PMS7003;56514;51.816;-0.026;2022-11-04T12:05:46;2.00;2.00;1.00
69222;PMS7003;56514;51.816;-0.026;2022-11-04T12:21:13;1.00;1.00;1.00
69222;PMS7003;56514;51.816;-0.026;2022-11-04T12:27:32;0.00;0.00;0.00
69222;PMS7003;56514;51.816;-0.026;2022-11-04T12:30:33;1.25;1.00;0.25
69222;PMS7003;56514;51.816;-0.026;2022-11-04T12:33:33;0.75;0.75;0.50
69222;PMS7003;56514;51.816;-0.026;2022-11-04T12:36:42;0.25;0.00;0.00
69222;PMS7003;56514;51.816;-0.026;2022-11-04T12:39:47;0.00;0.00;0.00
69222;PMS7003;56514;51.816;-0.026;2022-11-04T12:42:56;0.25;0.25;0.00
69222;PMS7003;56514;51.816;-0.026;2022-11-04T12:49:08;0.00;0.00;0.00
69222;PMS7003;56514;51.816;-0.026;2022-11-04T12:55:03;0.00;0.00;0.00
69222;PMS7003;56514;51.816;-0.026;2022-11-04T13:01:02;0.00;0.00;0.00
69222;PMS7003;56514;51.816;-0.026;2022-11-04T13:03:54;0.00;0.00;0.00
69222;PMS7003;56514;51.816;-0.026;2022-11-04T13:06:52;0.00;0.00;0.00
69222;PMS7003;56514;51.816;-0.026;2022-11-04T13:09:44;0.00;0.00;0.00
69222;PMS7003;56514;51.816;-0.026;2022-11-04T13:12:38;0.00;0.00;0.00
69222;PMS7003;56514;51.816;-0.026;2022-11-04T13:15:27;0.00;0.00;0.00
69222;PMS7003;56514;51.816;-0.026;2022-11-04T13:18:20;0.00;0.00;0.00
69222;PMS7003;56514;51.816;-0.026;2022-11-04T13:21:09;0.00;0.00;0.00
69222;PMS7003;56514;51.816;-0.026;2022-11-04T13:24:02;0.00;0.00;0.00
69222;PMS7003;56514;51.816;-0.026;2022-11-04T13:27:12;0.00;0.00;0.00
69222;PMS7003;56514;51.816;-0.026;2022-11-04T13:36:29;0.00;0.00;0.00
69222;PMS7003;56514;51.816;-0.026;2022-11-04T13:39:29;0.00;0.00;0.00
69222;PMS7003;56514;51.816;-0.026;2022-11-04T13:45:32;0.00;0.00;0.00
69222;PMS7003;56514;51.816;-0.026;2022-11-04T13:48:20;0.00;0.00;0.00
69222;PMS7003;56514;51.816;-0.026;2022-11-04T13:51:12;0.00;0.00;0.00
69222;PMS7003;56514;51.816;-0.026;2022-11-04T13:53:57;0.00;0.00;0.00
69222;PMS7003;56514;51.816;-0.026;2022-11-04T13:56:42;0.00;0.00;0.00
69222;PMS7003;56514;51.816;-0.026;2022-11-04T13:59:28;0.00;0.00;0.00
69222;PMS7003;56514;51.816;-0.026;2022-11-04T14:02:22;0.00;0.00;0.00
69222;PMS7003;56514;51.816;-0.026;2022-11-04T14:08:25;0.00;0.00;0.00
69222;PMS7003;56514;51.816;-0.026;2022-11-04T14:11:11;0.00;0.00;0.00
69222;PMS7003;56514;51.816;-0.026;2022-11-04T14:14:00;0.00;0.00;0.00
69222;PMS7003;56514;51.816;-0.026;2022-11-04T14:16:46;0.00;0.00;0.00
69222;PMS7003;56514;51.816;-0.026;2022-11-04T14:22:36;0.00;0.00;0.00
69222;PMS7003;56514;51.816;-0.026;2022-11-04T14:25:35;0.00;0.00;0.00
69222;PMS7003;56514;51.816;-0.026;2022-11-04T14:28:27;0.00;0.00;0.00
69222;PMS7003;56514;51.816;-0.026;2022-11-04T14:31:32;0.00;0.00;0.00
69222;PMS7003;56514;51.816;-0.026;2022-11-04T14:37:20;0.00;0.00;0.00
69222;PMS7003;56514;51.816;-0.026;2022-11-04T14:40:21;0.00;0.00;0.00
69222;PMS7003;56514;51.816;-0.026;2022-11-04T14:43:16;0.00;0.00;0.00
69222;PMS7003;56514;51.816;-0.026;2022-11-04T14:46:11;0.00;0.00;0.00
69222;PMS7003;56514;51.816;-0.026;2022-11-04T14:49:03;0.00;0.00;0.00
69222;PMS7003;56514;51.816;-0.026;2022-11-04T14:51:50;0.00;0.00;0.00
69222;PMS7003;56514;51.816;-0.026;2022-11-04T14:54:39;0.00;0.00;0.00
69222;PMS7003;56514;51.816;-0.026;2022-11-04T14:57:24;0.00;0.00;0.00
69222;PMS7003;56514;51.816;-0.026;2022-11-04T15:03:11;0.00;0.00;0.00
69222;PMS7003;56514;51.816;-0.026;2022-11-04T15:05:59;0.00;0.00;0.00
69222;PMS7003;56514;51.816;-0.026;2022-11-04T15:08:46;0.00;0.00;0.00
69222;PMS7003;56514;51.816;-0.026;2022-11-04T15:11:38;0.00;0.00;0.00
69222;PMS7003;56514;51.816;-0.026;2022-11-04T15:14:42;0.00;0.00;0.00
69222;PMS7003;56514;51.816;-0.026;2022-11-04T15:17:28;0.00;0.00;0.00
69222;PMS7003;56514;51.816;-0.026;2022-11-04T15:20:26;0.00;0.00;0.00
69222;PMS7003;56514;51.816;-0.026;2022-11-04T15:23:15;0.00;0.00;0.00
69222;PMS7003;56514;51.816;-0.026;2022-11-04T15:26:04;0.00;0.00;0.00
69222;PMS7003;56514;51.816;-0.026;2022-11-04T15:28:50;0.00;0.00;0.00
69222;PMS7003;56514;51.816;-0.026;2022-11-04T15:31:36;0.00;0.00;0.00
69222;PMS7003;56514;51.816;-0.026;2022-11-04T15:34:27;0.00;0.00;0.00
69222;PMS7003;56514;51.816;-0.026;2022-11-04T15:37:13;0.00;0.00;0.00
69222;PMS7003;56514;51.816;-0.026;2022-11-04T15:39:59;0.00;0.00;0.00
69222;PMS7003;56514;51.816;-0.026;2022-11-04T15:42:44;0.00;0.00;0.00
69222;PMS7003;56514;51.816;-0.026;2022-11-04T15:45:38;0.00;0.00;0.00
69222;PMS7003;56514;51.816;-0.026;2022-11-04T15:48:35;0.00;0.00;0.00
69222;PMS7003;56514;51.816;-0.026;2022-11-04T15:51:23;0.00;0.00;0.00
69222;PMS7003;56514;51.816;-0.026;2022-11-04T15:57:22;0.00;0.00;0.00
69222;PMS7003;56514;51.816;-0.026;2022-11-04T16:00:17;0.00;0.00;0.00
69222;PMS7003;56514;51.816;-0.026;2022-11-04T16:03:13;0.00;0.00;0.00
69222;PMS7003;56514;51.816;-0.026;2022-11-04T16:06:04;0.00;0.00;0.00
69222;PMS7003;56514;51.816;-0.026;2022-11-04T16:09:04;0.00;0.00;0.00
69222;PMS7003;56514;51.816;-0.026;2022-11-04T16:15:34;0.00;0.00;0.00
69222;PMS7003;56514;51.816;-0.026;2022-11-04T16:18:34;0.00;0.00;0.00
69222;PMS7003;56514;51.816;-0.026;2022-11-04T16:21:27;0.00;0.00;0.00
69222;PMS7003;56514;51.816;-0.026;2022-11-04T16:24:22;0.00;0.00;0.00
69222;PMS7003;56514;51.816;-0.026;2022-11-04T16:27:10;0.00;0.00;0.00
69222;PMS7003;56514;51.816;-0.026;2022-11-04T16:30:18;0.00;0.00;0.00
69222;PMS7003;56514;51.816;-0.026;2022-11-04T16:33:08;0.00;0.00;0.00
69222;PMS7003;56514;51.816;-0.026;2022-11-04T16:35:55;0.25;0.25;0.25
69222;PMS7003;56514;51.816;-0.026;2022-11-04T16:38:40;1.25;1.25;1.00
69222;PMS7003;56514;51.816;-0.026;2022-11-04T16:41:26;0.50;0.50;0.50
69222;PMS7003;56514;51.816;-0.026;2022-11-04T16:44:19;1.00;1.00;1.00
69222;PMS7003;56514;51.816;-0.026;2022-11-04T16:47:07;1.00;1.00;1.00
69222;PMS7003;56514;51.816;-0.026;2022-11-04T16:49:57;1.00;1.00;1.00
69222;PMS7003;56514;51.816;-0.026;2022-11-04T16:52:43;1.00;1.00;1.00
69222;PMS7003;56514;51.816;-0.026;2022-11-04T16:55:28;1.33;1.33;1.00
69222;PMS7003;56514;51.816;-0.026;2022-11-04T16:58:16;1.50;1.50;1.25
69222;PMS7003;56514;51.816;-0.026;2022-11-04T17:01:02;2.00;2.00;2.00
69222;PMS7003;56514;51.816;-0.026;2022-11-04T17:03:47;0.75;0.75;0.00
69222;PMS7003;56514;51.816;-0.026;2022-11-04T17:06:33;1.50;1.50;1.00
69222;PMS7003;56514;51.816;-0.026;2022-11-04T17:09:19;1.00;1.00;1.00
69222;PMS7003;56514;51.816;-0.026;2022-11-04T17:12:05;2.00;2.00;2.00
69222;PMS7003;56514;51.816;-0.026;2022-11-04T17:14:50;2.00;2.00;1.75
69222;PMS7003;56514;51.816;-0.026;2022-11-04T17:17:35;3.00;3.00;3.00
69222;PMS7003;56514;51.816;-0.026;2022-11-04T17:20:20;4.00;4.00;2.00
69222;PMS7003;56514;51.816;-0.026;2022-11-04T17:23:05;2.00;2.00;2.00
69222;PMS7003;56514;51.816;-0.026;2022-11-04T17:25:50;2.00;2.00;2.00
69222;PMS7003;56514;51.816;-0.026;2022-11-04T17:28:36;1.00;1.00;1.00
69222;PMS7003;56514;51.816;-0.026;2022-11-04T17:31:21;2.00;2.00;2.00
69222;PMS7003;56514;51.816;-0.026;2022-11-04T17:34:07;1.00;1.00;1.00
69222;PMS7003;56514;51.816;-0.026;2022-11-04T17:36:53;6.00;6.00;5.00
69222;PMS7003;56514;51.816;-0.026;2022-11-04T17:39:38;3.50;3.50;3.50
69222;PMS7003;56514;51.816;-0.026;2022-11-04T17:42:24;4.00;4.00;4.00
69222;PMS7003;56514;51.816;-0.026;2022-11-04T17:45:28;4.00;4.00;4.00
69222;PMS7003;56514;51.816;-0.026;2022-11-04T17:48:13;5.00;5.00;5.00
69222;PMS7003;56514;51.816;-0.026;2022-11-04T17:50:58;7.25;7.25;7.25
69222;PMS7003;56514;51.816;-0.026;2022-11-04T17:53:43;9.75;8.75;8.25
69222;PMS7003;56514;51.816;-0.026;2022-11-04T17:56:29;19.00;19.00;13.75
69222;PMS7003;56514;51.816;-0.026;2022-11-04T17:59:15;14.25;14.25;11.75
69222;PMS7003;56514;51.816;-0.026;2022-11-04T18:02:00;10.00;10.00;8.50
69222;PMS7003;56514;51.816;-0.026;2022-11-04T18:04:45;11.75;10.00;9.00
69222;PMS7003;56514;51.816;-0.026;2022-11-04T18:07:30;9.50;9.50;7.50
69222;PMS7003;56514;51.816;-0.026;2022-11-04T18:10:15;7.25;7.25;6.25
69222;PMS7003;56514;51.816;-0.026;2022-11-04T18:13:00;13.00;13.00;11.50
69222;PMS7003;56514;51.816;-0.026;2022-11-04T18:15:45;1.50;1.50;0.00
69222;PMS7003;56514;51.816;-0.026;2022-11-04T18:18:29;9.25;9.25;7.50
69222;PMS7003;56514;51.816;-0.026;2022-11-04T18:21:17;7.00;7.00;7.00
69222;PMS7003;56514;51.816;-0.026;2022-11-04T18:24:02;13.00;13.00;10.50
69222;PMS7003;56514;51.816;-0.026;2022-11-04T18:26:47;20.00;20.00;14.50
69222;PMS7003;56514;51.816;-0.026;2022-11-04T18:29:33;12.75;12.75;10.75
69222;PMS7003;56514;51.816;-0.026;2022-11-04T18:32:19;15.00;15.00;13.00
69222;PMS7003;56514;51.816;-0.026;2022-11-04T18:35:05;19.50;19.00;12.00
69222;PMS7003;56514;51.816;-0.026;2022-11-04T18:37:50;13.50;13.50;11.50